This is the latest recevied weather packets stored in our database for station/object KE6LRO. If no packets are shown the sender has not sent any weather packets the latest 10 day(s).
| Time | Temp. | Humidity | Pressure | Rain* | Wind** | Luminosity | Snow |
|---|---|---|---|---|---|---|---|
| 1777841548 | 23.33° C | 25% | 1016.1 hPa | 0 mm | - | 715 W/m² | - |
| 1777841244 | 22.78° C | 26% | 1016.2 hPa | 0 mm | - | 747 W/m² | - |
| 1777840942 | 25° C | 23% | 1016.1 hPa | 0 mm | - | 126 W/m² | - |
| 1777840639 | 23.89° C | 24% | 1016.1 hPa | 0 mm | - | 726 W/m² | - |
| 1777840337 | 23.33° C | 25% | 1016.1 hPa | 0 mm | - | 719 W/m² | - |
| 1777840034 | 23.89° C | 26% | 1016.2 hPa | 0 mm | - | 346 W/m² | - |
| 1777839732 | 23.89° C | 25% | 1016.2 hPa | 0 mm | - | 734 W/m² | - |
| 1777839429 | 23.89° C | 27% | 1016.3 hPa | 0 mm | - | 734 W/m² | - |
| 1777839127 | 23.89° C | 25% | 1016.3 hPa | 0 mm | - | 735 W/m² | - |
| 1777838823 | 23.89° C | 24% | 1016.4 hPa | 0 mm | - | 741 W/m² | - |
| 1777838519 | 23.89° C | 23% | 1016.4 hPa | 0 mm | - | 746 W/m² | - |
| 1777838216 | 23.89° C | 24% | 1016.6 hPa | 0 mm | - | 749 W/m² | - |
| 1777837913 | 22.78° C | 27% | 1016.4 hPa | 0 mm | - | 750 W/m² | - |
| 1777837610 | 22.78° C | 30% | 1016.7 hPa | 0 mm | - | 756 W/m² | - |
| 1777837305 | 22.22° C | 31% | 1016.4 hPa | 0 mm | - | 751 W/m² | - |
| 1777837003 | 23.33° C | 30% | 1016.6 hPa | 0 mm | - | 751 W/m² | - |
| 1777836698 | 22.78° C | 29% | 1016.8 hPa | 0 mm | - | 760 W/m² | - |
| 1777836394 | 23.89° C | 29% | 1016.8 hPa | 0 mm | - | 764 W/m² | - |
| 1777836090 | 23.33° C | 30% | 1016.9 hPa | 0 mm | - | 759 W/m² | - |
| 1777835787 | 22.78° C | 28% | 1016.8 hPa | 0 mm | - | 762 W/m² | - |
| 1777835484 | 22.78° C | 32% | 1016.9 hPa | 0 mm | - | 757 W/m² | - |
| 1777835181 | 21.67° C | 29% | 1017.1 hPa | 0 mm | - | 759 W/m² | - |
| 1777834878 | 21.67° C | 32% | 1017.2 hPa | 0 mm | - | 756 W/m² | - |
| 1777834574 | 22.22° C | 32% | 1017.3 hPa | 0 mm | - | 758 W/m² | - |
| 1777834274 | 21.67° C | 29% | 1017.4 hPa | 0 mm | - | 765 W/m² | - |
* Rain latest hour (hover to see other rain measurements)
** Current wind speed in m/s (hover to see current wind gust speed)